sensor_id;sensor_type;location;lat;lon;timestamp;pressure;altitude;pressure_sealevel;temperature;humidity
1616;BME280;801;47.982;7.810;2022-08-02T02:32:34;98819.25;;;18.61;100.00
1616;BME280;801;47.982;7.810;2022-08-02T02:35:02;98823.88;;;18.60;100.00
1616;BME280;801;47.982;7.810;2022-08-02T02:37:31;98832.84;;;18.61;100.00
1616;BME280;801;47.982;7.810;2022-08-02T02:39:59;98817.53;;;18.65;100.00
1616;BME280;801;47.982;7.810;2022-08-02T02:42:28;98818.38;;;18.74;100.00
1616;BME280;801;47.982;7.810;2022-08-02T02:44:55;98817.88;;;18.72;100.00
1616;BME280;801;47.982;7.810;2022-08-02T02:47:23;98812.94;;;18.74;100.00
1616;BME280;801;47.982;7.810;2022-08-02T02:49:51;98816.59;;;18.70;100.00
1616;BME280;801;47.982;7.810;2022-08-02T02:52:18;98819.63;;;18.68;100.00
1616;BME280;801;47.982;7.810;2022-08-02T02:54:47;98820.13;;;18.70;100.00
1616;BME280;801;47.982;7.810;2022-08-02T02:57:14;98822.41;;;18.77;100.00
1616;BME280;801;47.982;7.810;2022-08-02T02:59:42;98821.41;;;18.73;100.00
1616;BME280;801;47.982;7.810;2022-08-02T03:02:10;98821.41;;;18.73;100.00
1616;BME280;801;47.982;7.810;2022-08-02T03:04:39;98834.34;;;18.67;100.00
1616;BME280;801;47.982;7.810;2022-08-02T03:07:08;98825.69;;;18.65;100.00
1616;BME280;801;47.982;7.810;2022-08-02T03:09:35;98835.34;;;18.71;100.00
1616;BME280;801;47.982;7.810;2022-08-02T03:12:02;98827.06;;;18.76;100.00
1616;BME280;801;47.982;7.810;2022-08-02T03:14:29;98833.91;;;18.74;100.00
1616;BME280;801;47.982;7.810;2022-08-02T03:16:56;98833.28;;;18.77;100.00
1616;BME280;801;47.982;7.810;2022-08-02T03:19:23;98826.56;;;18.74;100.00
1616;BME280;801;47.982;7.810;2022-08-02T03:21:50;98824.63;;;18.75;100.00
1616;BME280;801;47.982;7.810;2022-08-02T03:24:17;98828.16;;;18.75;100.00
1616;BME280;801;47.982;7.810;2022-08-02T03:26:44;98835.94;;;18.68;100.00
1616;BME280;801;47.982;7.810;2022-08-02T03:29:11;98830.00;;;18.66;100.00
1616;BME280;801;47.982;7.810;2022-08-02T03:31:40;98820.38;;;18.60;100.00
1616;BME280;801;47.982;7.810;2022-08-02T03:34:08;98813.78;;;18.61;100.00
1616;BME280;801;47.982;7.810;2022-08-02T03:36:35;98821.47;;;18.59;100.00
1616;BME280;801;47.982;7.810;2022-08-02T03:39:02;98810.38;;;18.55;100.00
1616;BME280;801;47.982;7.810;2022-08-02T03:41:32;98822.81;;;18.48;100.00
1616;BME280;801;47.982;7.810;2022-08-02T03:43:59;98816.19;;;18.40;100.00
1616;BME280;801;47.982;7.810;2022-08-02T03:46:26;98823.16;;;18.32;100.00
1616;BME280;801;47.982;7.810;2022-08-02T03:48:53;98825.47;;;18.25;100.00
1616;BME280;801;47.982;7.810;2022-08-02T03:51:20;98828.22;;;18.25;100.00
1616;BME280;801;47.982;7.810;2022-08-02T03:53:47;98823.84;;;18.24;100.00
1616;BME280;801;47.982;7.810;2022-08-02T03:56:14;98821.47;;;18.22;100.00
1616;BME280;801;47.982;7.810;2022-08-02T03:58:43;98808.66;;;18.23;100.00
1616;BME280;801;47.982;7.810;2022-08-02T04:01:09;98817.34;;;18.11;100.00
1616;BME280;801;47.982;7.810;2022-08-02T04:03:36;98817.34;;;18.11;100.00
1616;BME280;801;47.982;7.810;2022-08-02T04:06:02;98815.53;;;18.07;100.00
1616;BME280;801;47.982;7.810;2022-08-02T04:08:29;98810.09;;;18.07;100.00
1616;BME280;801;47.982;7.810;2022-08-02T04:10:55;98810.41;;;18.05;100.00
1616;BME280;801;47.982;7.810;2022-08-02T04:13:39;98804.75;;;18.01;100.00
1616;BME280;801;47.982;7.810;2022-08-02T04:16:11;98799.44;;;17.96;100.00
1616;BME280;801;47.982;7.810;2022-08-02T04:18:42;98801.03;;;17.83;100.00
1616;BME280;801;47.982;7.810;2022-08-02T04:21:12;98795.81;;;17.87;100.00
1616;BME280;801;47.982;7.810;2022-08-02T04:23:41;98810.91;;;17.79;100.00
1616;BME280;801;47.982;7.810;2022-08-02T04:26:09;98808.72;;;17.95;100.00
1616;BME280;801;47.982;7.810;2022-08-02T04:28:36;98814.66;;;17.97;100.00
1616;BME280;801;47.982;7.810;2022-08-02T04:31:03;98816.88;;;17.95;100.00
1616;BME280;801;47.982;7.810;2022-08-02T04:33:33;98824.31;;;17.90;100.00
1616;BME280;801;47.982;7.810;2022-08-02T04:36:00;98827.41;;;17.97;100.00
1616;BME280;801;47.982;7.810;2022-08-02T04:38:27;98821.19;;;17.96;100.00
1616;BME280;801;47.982;7.810;2022-08-02T04:40:54;98823.09;;;17.96;100.00
1616;BME280;801;47.982;7.810;2022-08-02T04:43:21;98834.28;;;17.94;100.00
1616;BME280;801;47.982;7.810;2022-08-02T04:45:50;98831.03;;;17.92;100.00
1616;BME280;801;47.982;7.810;2022-08-02T04:48:17;98843.44;;;17.98;100.00
1616;BME280;801;47.982;7.810;2022-08-02T04:50:45;98831.13;;;18.15;100.00
1616;BME280;801;47.982;7.810;2022-08-02T04:53:12;98834.25;;;18.22;100.00
1616;BME280;801;47.982;7.810;2022-08-02T04:55:38;98837.06;;;18.17;100.00
1616;BME280;801;47.982;7.810;2022-08-02T04:58:05;98842.91;;;18.24;100.00
1616;BME280;801;47.982;7.810;2022-08-02T05:00:31;98835.97;;;18.18;100.00
1616;BME280;801;47.982;7.810;2022-08-02T05:02:59;98841.09;;;18.19;100.00
1616;BME280;801;47.982;7.810;2022-08-02T05:05:26;98837.78;;;18.22;100.00
1616;BME280;801;47.982;7.810;2022-08-02T05:07:54;98844.19;;;18.40;100.00
1616;BME280;801;47.982;7.810;2022-08-02T05:10:21;98839.75;;;18.44;100.00
1616;BME280;801;47.982;7.810;2022-08-02T05:12:47;98835.75;;;18.42;100.00
1616;BME280;801;47.982;7.810;2022-08-02T05:15:14;98845.69;;;18.46;100.00
1616;BME280;801;47.982;7.810;2022-08-02T05:17:43;98846.09;;;18.54;100.00
1616;BME280;801;47.982;7.810;2022-08-02T05:20:10;98844.88;;;18.60;100.00
1616;BME280;801;47.982;7.810;2022-08-02T05:22:37;98840.59;;;18.67;100.00
1616;BME280;801;47.982;7.810;2022-08-02T05:25:06;98844.47;;;18.75;100.00
1616;BME280;801;47.982;7.810;2022-08-02T05:27:33;98845.31;;;18.76;100.00
1616;BME280;801;47.982;7.810;2022-08-02T05:30:00;98840.41;;;18.78;100.00
1616;BME280;801;47.982;7.810;2022-08-02T05:32:26;98841.09;;;18.70;100.00
1616;BME280;801;47.982;7.810;2022-08-02T05:34:53;98839.97;;;18.84;100.00
1616;BME280;801;47.982;7.810;2022-08-02T05:37:19;98839.13;;;18.84;100.00
1616;BME280;801;47.982;7.810;2022-08-02T05:39:45;98834.69;;;18.88;100.00
1616;BME280;801;47.982;7.810;2022-08-02T05:42:13;98840.34;;;18.92;100.00
1616;BME280;801;47.982;7.810;2022-08-02T05:44:40;98835.97;;;18.91;100.00
1616;BME280;801;47.982;7.810;2022-08-02T05:47:06;98838.72;;;18.91;100.00
1616;BME280;801;47.982;7.810;2022-08-02T05:49:33;98841.94;;;18.93;100.00
1616;BME280;801;47.982;7.810;2022-08-02T05:52:03;98831.91;;;18.79;100.00
1616;BME280;801;47.982;7.810;2022-08-02T05:54:36;98831.41;;;18.77;100.00
1616;BME280;801;47.982;7.810;2022-08-02T05:57:09;98839.47;;;19.05;100.00
1616;BME280;801;47.982;7.810;2022-08-02T05:59:46;98838.09;;;19.16;100.00
1616;BME280;801;47.982;7.810;2022-08-02T06:02:25;98834.31;;;19.26;100.00
1616;BME280;801;47.982;7.810;2022-08-02T06:04:58;98834.22;;;19.40;100.00
1616;BME280;801;47.982;7.810;2022-08-02T06:07:28;98830.75;;;19.48;100.00
1616;BME280;801;47.982;7.810;2022-08-02T06:09:55;98838.13;;;19.47;100.00
1616;BME280;801;47.982;7.810;2022-08-02T06:12:24;98845.69;;;19.59;100.00
1616;BME280;801;47.982;7.810;2022-08-02T06:14:56;98848.78;;;19.66;100.00
1616;BME280;801;47.982;7.810;2022-08-02T06:17:24;98848.22;;;19.78;100.00
1616;BME280;801;47.982;7.810;2022-08-02T06:19:52;98850.00;;;19.83;100.00
1616;BME280;801;47.982;7.810;2022-08-02T06:22:25;98854.78;;;19.77;100.00
1616;BME280;801;47.982;7.810;2022-08-02T06:24:53;98857.22;;;19.79;100.00
1616;BME280;801;47.982;7.810;2022-08-02T06:27:19;98855.44;;;19.74;100.00
1616;BME280;801;47.982;7.810;2022-08-02T06:29:47;98849.53;;;19.81;100.00
1616;BME280;801;47.982;7.810;2022-08-02T06:32:17;98854.97;;;19.81;100.00
1616;BME280;801;47.982;7.810;2022-08-02T06:34:44;98851.75;;;19.79;100.00
1616;BME280;801;47.982;7.810;2022-08-02T06:37:18;98856.41;;;19.78;100.00
1616;BME280;801;47.982;7.810;2022-08-02T06:39:53;98855.97;;;19.85;100.00
1616;BME280;801;47.982;7.810;2022-08-02T06:42:35;98860.78;;;19.88;100.00
1616;BME280;801;47.982;7.810;2022-08-02T06:45:03;98862.38;;;19.89;100.00
1616;BME280;801;47.982;7.810;2022-08-02T06:47:32;98861.63;;;20.06;100.00
1616;BME280;801;47.982;7.810;2022-08-02T06:49:58;98862.91;;;20.08;100.00
1616;BME280;801;47.982;7.810;2022-08-02T06:52:26;98860.72;;;20.28;100.00
1616;BME280;801;47.982;7.810;2022-08-02T06:54:55;98859.47;;;20.34;100.00
1616;BME280;801;47.982;7.810;2022-08-02T06:57:22;98850.16;;;20.44;100.00
1616;BME280;801;47.982;7.810;2022-08-02T06:59:49;98852.09;;;20.52;100.00
1616;BME280;801;47.982;7.810;2022-08-02T07:02:15;98862.59;;;20.59;100.00
1616;BME280;801;47.982;7.810;2022-08-02T07:04:43;98860.78;;;20.54;100.00
1616;BME280;801;47.982;7.810;2022-08-02T07:07:09;98860.97;;;20.58;100.00
1616;BME280;801;47.982;7.810;2022-08-02T07:09:36;98856.25;;;20.49;100.00
1616;BME280;801;47.982;7.810;2022-08-02T07:12:03;98868.38;;;20.66;100.00
1616;BME280;801;47.982;7.810;2022-08-02T07:14:30;98871.72;;;20.80;100.00
1616;BME280;801;47.982;7.810;2022-08-02T07:16:57;98882.16;;;20.87;100.00
1616;BME280;801;47.982;7.810;2022-08-02T07:19:23;98877.84;;;20.86;100.00
1616;BME280;801;47.982;7.810;2022-08-02T07:21:51;98875.09;;;20.68;100.00
1616;BME280;801;47.982;7.810;2022-08-02T07:24:17;98876.41;;;20.80;100.00
1616;BME280;801;47.982;7.810;2022-08-02T07:26:44;98873.84;;;20.92;100.00
1616;BME280;801;47.982;7.810;2022-08-02T07:29:10;98878.94;;;20.85;100.00
1616;BME280;801;47.982;7.810;2022-08-02T07:31:37;98877.84;;;21.03;100.00
1616;BME280;801;47.982;7.810;2022-08-02T07:34:03;98878.16;;;21.02;100.00
1616;BME280;801;47.982;7.810;2022-08-02T07:36:30;98876.22;;;21.11;100.00
1616;BME280;801;47.982;7.810;2022-08-02T07:38:58;98882.81;;;21.10;100.00
1616;BME280;801;47.982;7.810;2022-08-02T07:41:24;98884.59;;;21.06;100.00
1616;BME280;801;47.982;7.810;2022-08-02T07:43:51;98883.13;;;21.17;100.00
1616;BME280;801;47.982;7.810;2022-08-02T07:46:17;98886.97;;;21.33;100.00
1616;BME280;801;47.982;7.810;2022-08-02T07:48:45;98887.13;;;21.37;100.00
1616;BME280;801;47.982;7.810;2022-08-02T07:51:11;98878.94;;;21.28;100.00
1616;BME280;801;47.982;7.810;2022-08-02T07:53:38;98878.94;;;21.46;100.00
1616;BME280;801;47.982;7.810;2022-08-02T07:56:06;98882.28;;;21.51;100.00
1616;BME280;801;47.982;7.810;2022-08-02T07:58:32;98885.78;;;21.69;100.00
1616;BME280;801;47.982;7.810;2022-08-02T08:00:58;98891.06;;;21.74;100.00
1616;BME280;801;47.982;7.810;2022-08-02T08:03:25;98885.66;;;21.57;100.00
1616;BME280;801;47.982;7.810;2022-08-02T08:05:51;98881.78;;;21.58;100.00
1616;BME280;801;47.982;7.810;2022-08-02T08:08:18;98890.16;;;21.62;100.00
1616;BME280;801;47.982;7.810;2022-08-02T08:10:45;98887.88;;;21.72;100.00
1616;BME280;801;47.982;7.810;2022-08-02T08:13:14;98887.16;;;21.93;100.00
1616;BME280;801;47.982;7.810;2022-08-02T08:15:41;98883.41;;;21.97;100.00
1616;BME280;801;47.982;7.810;2022-08-02T08:18:07;98886.72;;;22.12;100.00
1616;BME280;801;47.982;7.810;2022-08-02T08:20:34;98886.69;;;22.21;100.00
1616;BME280;801;47.982;7.810;2022-08-02T08:23:00;98889.25;;;22.55;100.00
1616;BME280;801;47.982;7.810;2022-08-02T08:25:27;98870.19;;;22.38;100.00
1616;BME280;801;47.982;7.810;2022-08-02T08:27:54;98869.03;;;22.39;100.00
1616;BME280;801;47.982;7.810;2022-08-02T08:30:21;98860.28;;;22.75;100.00
1616;BME280;801;47.982;7.810;2022-08-02T08:32:48;98865.94;;;22.91;100.00
1616;BME280;801;47.982;7.810;2022-08-02T08:35:15;98859.44;;;22.75;100.00
1616;BME280;801;47.982;7.810;2022-08-02T08:37:42;98854.38;;;22.65;100.00
1616;BME280;801;47.982;7.810;2022-08-02T08:40:09;98860.63;;;22.86;100.00
1616;BME280;801;47.982;7.810;2022-08-02T08:42:38;98860.19;;;22.84;100.00
1616;BME280;801;47.982;7.810;2022-08-02T08:45:06;98861.84;;;22.97;100.00
1616;BME280;801;47.982;7.810;2022-08-02T08:47:36;98854.41;;;23.19;100.00
1616;BME280;801;47.982;7.810;2022-08-02T08:50:04;98864.28;;;23.32;100.00
1616;BME280;801;47.982;7.810;2022-08-02T08:52:35;98861.13;;;23.42;100.00
1616;BME280;801;47.982;7.810;2022-08-02T08:55:08;98861.03;;;23.51;100.00
1616;BME280;801;47.982;7.810;2022-08-02T08:57:37;98866.69;;;23.34;100.00
1616;BME280;801;47.982;7.810;2022-08-02T09:00:07;98866.84;;;23.50;100.00
1616;BME280;801;47.982;7.810;2022-08-02T09:02:35;98862.97;;;23.63;100.00
1616;BME280;801;47.982;7.810;2022-08-02T09:05:01;98860.19;;;23.96;100.00
1616;BME280;801;47.982;7.810;2022-08-02T09:07:28;98860.09;;;24.05;100.00
1616;BME280;801;47.982;7.810;2022-08-02T09:09:55;98862.28;;;23.66;100.00
1616;BME280;801;47.982;7.810;2022-08-02T09:12:21;98855.63;;;23.76;100.00
1616;BME280;801;47.982;7.810;2022-08-02T09:14:49;98853.88;;;23.71;100.00
1616;BME280;801;47.982;7.810;2022-08-02T09:17:17;98856.19;;;23.94;100.00
1616;BME280;801;47.982;7.810;2022-08-02T09:19:45;98856.41;;;23.89;100.00
1616;BME280;801;47.982;7.810;2022-08-02T09:22:12;98856.06;;;23.90;100.00
1616;BME280;801;47.982;7.810;2022-08-02T09:24:42;98860.41;;;24.03;100.00
1616;BME280;801;47.982;7.810;2022-08-02T09:27:10;98858.56;;;23.95;100.00
1616;BME280;801;47.982;7.810;2022-08-02T09:29:37;98858.47;;;23.92;100.00
1616;BME280;801;47.982;7.810;2022-08-02T09:32:04;98869.44;;;24.04;100.00
1616;BME280;801;47.982;7.810;2022-08-02T09:34:44;98856.88;;;24.03;100.00
1616;BME280;801;47.982;7.810;2022-08-02T09:37:21;98856.63;;;24.08;100.00
1616;BME280;801;47.982;7.810;2022-08-02T09:39:48;98851.94;;;24.09;100.00
1616;BME280;801;47.982;7.810;2022-08-02T09:42:15;98856.63;;;24.08;100.00
1616;BME280;801;47.982;7.810;2022-08-02T09:44:52;98853.06;;;24.20;100.00
1616;BME280;801;47.982;7.810;2022-08-02T09:47:19;98859.94;;;24.38;100.00
1616;BME280;801;47.982;7.810;2022-08-02T09:49:47;98850.19;;;24.53;100.00
1616;BME280;801;47.982;7.810;2022-08-02T09:52:13;98855.94;;;24.36;100.00
1616;BME280;801;47.982;7.810;2022-08-02T09:54:40;98849.84;;;24.42;100.00
1616;BME280;801;47.982;7.810;2022-08-02T09:57:07;98850.34;;;24.32;100.00
1616;BME280;801;47.982;7.810;2022-08-02T09:59:34;98853.88;;;24.45;100.00
1616;BME280;801;47.982;7.810;2022-08-02T10:02:08;98846.25;;;24.79;100.00
1616;BME280;801;47.982;7.810;2022-08-02T10:04:35;98839.13;;;24.78;100.00
1616;BME280;801;47.982;7.810;2022-08-02T10:07:04;98845.69;;;25.01;100.00
1616;BME280;801;47.982;7.810;2022-08-02T10:09:31;98848.44;;;25.01;100.00
1616;BME280;801;47.982;7.810;2022-08-02T10:11:59;98848.44;;;25.01;100.00
1616;BME280;801;47.982;7.810;2022-08-02T10:14:26;98847.50;;;25.10;100.00
1616;BME280;801;47.982;7.810;2022-08-02T10:16:55;98844.88;;;24.85;100.00
1616;BME280;801;47.982;7.810;2022-08-02T10:19:22;98844.41;;;24.83;100.00
1616;BME280;801;47.982;7.810;2022-08-02T10:21:54;98838.69;;;25.04;100.00
1616;BME280;801;47.982;7.810;2022-08-02T10:24:25;98840.59;;;25.16;100.00
1616;BME280;801;47.982;7.810;2022-08-02T10:26:52;98845.63;;;25.26;100.00
1616;BME280;801;47.982;7.810;2022-08-02T10:29:23;98830.47;;;25.32;100.00
1616;BME280;801;47.982;7.810;2022-08-02T10:31:54;98832.00;;;25.61;100.00
1616;BME280;801;47.982;7.810;2022-08-02T10:34:26;98831.19;;;26.08;97.99
1616;BME280;801;47.982;7.810;2022-08-02T10:36:53;98832.78;;;25.94;95.30
1616;BME280;801;47.982;7.810;2022-08-02T10:39:22;98822.28;;;26.15;92.74
1616;BME280;801;47.982;7.810;2022-08-02T10:41:50;98819.81;;;25.94;92.59
1616;BME280;801;47.982;7.810;2022-08-02T10:44:21;98817.44;;;25.77;91.37
1616;BME280;801;47.982;7.810;2022-08-02T10:46:48;98816.00;;;26.15;91.00
1616;BME280;801;47.982;7.810;2022-08-02T10:49:15;98816.94;;;26.22;86.38
1616;BME280;801;47.982;7.810;2022-08-02T10:51:57;98825.88;;;26.00;89.54
1616;BME280;801;47.982;7.810;2022-08-02T10:54:27;98817.66;;;26.19;89.36
1616;BME280;801;47.982;7.810;2022-08-02T10:56:55;98820.03;;;26.21;89.15
1616;BME280;801;47.982;7.810;2022-08-02T10:59:23;98811.34;;;26.19;90.63
1616;BME280;801;47.982;7.810;2022-08-02T11:01:50;98806.38;;;26.79;91.73
1616;BME280;801;47.982;7.810;2022-08-02T11:04:17;98809.84;;;26.96;87.67
1616;BME280;801;47.982;7.810;2022-08-02T11:07:08;98811.16;;;27.44;85.38
1616;BME280;801;47.982;7.810;2022-08-02T11:09:36;98812.03;;;26.86;84.97
1616;BME280;801;47.982;7.810;2022-08-02T11:12:04;98817.81;;;26.62;87.06
1616;BME280;801;47.982;7.810;2022-08-02T11:14:33;98804.69;;;26.75;90.54
1616;BME280;801;47.982;7.810;2022-08-02T11:17:08;98806.78;;;26.81;87.35
1616;BME280;801;47.982;7.810;2022-08-02T11:20:14;98802.72;;;27.37;84.69
1616;BME280;801;47.982;7.810;2022-08-02T11:22:43;98803.31;;;26.84;85.98
1616;BME280;801;47.982;7.810;2022-08-02T11:25:31;98804.66;;;27.13;87.39
1616;BME280;801;47.982;7.810;2022-08-02T11:27:59;98795.94;;;27.11;84.58
1616;BME280;801;47.982;7.810;2022-08-02T11:30:26;98788.25;;;27.21;83.87
1616;BME280;801;47.982;7.810;2022-08-02T11:32:55;98790.88;;;27.13;83.68
1616;BME280;801;47.982;7.810;2022-08-02T11:35:22;98787.66;;;27.54;83.71
1616;BME280;801;47.982;7.810;2022-08-02T11:37:49;98784.78;;;27.97;82.23
1616;BME280;801;47.982;7.810;2022-08-02T11:40:17;98784.97;;;28.07;78.33
1616;BME280;801;47.982;7.810;2022-08-02T11:42:46;98783.19;;;28.22;77.92
1616;BME280;801;47.982;7.810;2022-08-02T11:45:16;98781.56;;;27.91;76.40
1616;BME280;801;47.982;7.810;2022-08-02T11:47:44;98783.53;;;27.67;77.56
1616;BME280;801;47.982;7.810;2022-08-02T11:50:11;98779.59;;;28.18;78.67
1616;BME280;801;47.982;7.810;2022-08-02T11:52:38;98777.38;;;28.31;78.00
1616;BME280;801;47.982;7.810;2022-08-02T11:55:05;98778.38;;;28.46;74.01
1616;BME280;801;47.982;7.810;2022-08-02T11:57:33;98773.19;;;28.41;74.94
1616;BME280;801;47.982;7.810;2022-08-02T12:00:02;98778.19;;;28.31;72.12
1616;BME280;801;47.982;7.810;2022-08-02T12:02:30;98772.34;;;28.10;74.09
1616;BME280;801;47.982;7.810;2022-08-02T12:05:00;98772.16;;;27.96;73.31
1616;BME280;801;47.982;7.810;2022-08-02T12:07:28;98765.25;;;28.09;71.88
1616;BME280;801;47.982;7.810;2022-08-02T12:09:58;98768.53;;;28.18;73.17
1616;BME280;801;47.982;7.810;2022-08-02T12:12:24;98770.47;;;27.87;72.98
1616;BME280;801;47.982;7.810;2022-08-02T12:14:51;98763.94;;;28.29;73.48
1616;BME280;801;47.982;7.810;2022-08-02T12:17:23;98763.19;;;28.32;71.43
1616;BME280;801;47.982;7.810;2022-08-02T12:20:07;98761.47;;;28.51;70.97
1616;BME280;801;47.982;7.810;2022-08-02T12:22:34;98763.56;;;29.36;70.24
1616;BME280;801;47.982;7.810;2022-08-02T12:25:15;98763.88;;;29.24;66.63
1616;BME280;801;47.982;7.810;2022-08-02T12:27:42;98758.53;;;29.45;65.36
1616;BME280;801;47.982;7.810;2022-08-02T12:30:11;98760.00;;;29.35;63.78
1616;BME280;801;47.982;7.810;2022-08-02T12:32:39;98755.56;;;28.86;63.33
1616;BME280;801;47.982;7.810;2022-08-02T12:35:08;98749.72;;;28.95;67.40
1616;BME280;801;47.982;7.810;2022-08-02T12:37:36;98755.59;;;29.27;67.06
1616;BME280;801;47.982;7.810;2022-08-02T12:40:21;98746.53;;;29.30;65.14
1616;BME280;801;47.982;7.810;2022-08-02T12:42:49;98746.31;;;29.50;63.79
1616;BME280;801;47.982;7.810;2022-08-02T12:45:16;98744.63;;;29.86;61.86
1616;BME280;801;47.982;7.810;2022-08-02T12:47:45;98736.25;;;29.79;60.80
1616;BME280;801;47.982;7.810;2022-08-02T12:50:15;98732.22;;;29.69;63.55
1616;BME280;801;47.982;7.810;2022-08-02T12:52:41;98733.81;;;29.70;60.52
1616;BME280;801;47.982;7.810;2022-08-02T12:55:26;98735.22;;;29.50;60.22
1616;BME280;801;47.982;7.810;2022-08-02T12:57:55;98728.00;;;29.38;61.48
1616;BME280;801;47.982;7.810;2022-08-02T13:00:25;98731.31;;;29.54;60.16
1616;BME280;801;47.982;7.810;2022-08-02T13:02:54;98726.66;;;29.17;61.52
1616;BME280;801;47.982;7.810;2022-08-02T13:05:20;98730.31;;;29.29;60.56
1616;BME280;801;47.982;7.810;2022-08-02T13:07:47;98717.34;;;29.92;59.34
1616;BME280;801;47.982;7.810;2022-08-02T13:10:13;98727.00;;;30.19;57.67
1616;BME280;801;47.982;7.810;2022-08-02T13:12:40;98718.66;;;30.12;56.48
1616;BME280;801;47.982;7.810;2022-08-02T13:15:08;98727.38;;;30.18;53.89
1616;BME280;801;47.982;7.810;2022-08-02T13:17:35;98716.84;;;29.72;53.71
1616;BME280;801;47.982;7.810;2022-08-02T13:20:03;98717.78;;;30.01;53.00
1616;BME280;801;47.982;7.810;2022-08-02T13:22:30;98718.16;;;29.96;51.65
1616;BME280;801;47.982;7.810;2022-08-02T13:24:57;98711.16;;;30.20;51.24
1616;BME280;801;47.982;7.810;2022-08-02T13:27:24;98714.47;;;30.51;50.73
1616;BME280;801;47.982;7.810;2022-08-02T13:29:52;98707.75;;;30.55;49.07
1616;BME280;801;47.982;7.810;2022-08-02T13:32:20;98714.78;;;30.31;48.83
1616;BME280;801;47.982;7.810;2022-08-02T13:34:47;98712.91;;;30.68;49.23
1616;BME280;801;47.982;7.810;2022-08-02T13:37:15;98708.19;;;30.82;49.22
1616;BME280;801;47.982;7.810;2022-08-02T13:39:41;98704.31;;;31.16;44.34
1616;BME280;801;47.982;7.810;2022-08-02T13:42:08;98701.09;;;30.81;43.18
1616;BME280;801;47.982;7.810;2022-08-02T13:44:35;98711.38;;;30.70;42.14
1616;BME280;801;47.982;7.810;2022-08-02T13:47:01;98702.56;;;30.47;43.95
1616;BME280;801;47.982;7.810;2022-08-02T13:49:28;98695.59;;;31.17;44.76
1616;BME280;801;47.982;7.810;2022-08-02T13:51:55;98698.72;;;31.91;42.37
1616;BME280;801;47.982;7.810;2022-08-02T13:54:22;98701.81;;;32.22;42.63
1616;BME280;801;47.982;7.810;2022-08-02T13:56:49;98696.13;;;32.54;41.66
1616;BME280;801;47.982;7.810;2022-08-02T13:59:18;98697.69;;;32.48;38.73
1616;BME280;801;47.982;7.810;2022-08-02T14:01:45;98699.47;;;32.10;39.41
1616;BME280;801;47.982;7.810;2022-08-02T14:04:12;98693.94;;;32.02;40.35
1616;BME280;801;47.982;7.810;2022-08-02T14:06:38;98692.19;;;32.37;39.81
1616;BME280;801;47.982;7.810;2022-08-02T14:09:05;98697.06;;;32.12;37.46
1616;BME280;801;47.982;7.810;2022-08-02T14:11:33;98691.59;;;31.72;38.48
1616;BME280;801;47.982;7.810;2022-08-02T14:13:59;98687.53;;;32.13;37.55
1616;BME280;801;47.982;7.810;2022-08-02T14:16:26;98682.63;;;32.45;36.22
1616;BME280;801;47.982;7.810;2022-08-02T14:18:53;98683.44;;;32.39;35.26
1616;BME280;801;47.982;7.810;2022-08-02T14:21:19;98688.69;;;32.22;35.45
1616;BME280;801;47.982;7.810;2022-08-02T14:23:46;98687.63;;;31.70;35.16
1616;BME280;801;47.982;7.810;2022-08-02T14:26:12;98678.94;;;31.64;34.93
1616;BME280;801;47.982;7.810;2022-08-02T14:28:40;98682.84;;;31.81;33.79
1616;BME280;801;47.982;7.810;2022-08-02T14:31:06;98681.97;;;32.20;32.84
1616;BME280;801;47.982;7.810;2022-08-02T14:33:33;98683.88;;;32.34;34.18
1616;BME280;801;47.982;7.810;2022-08-02T14:35:59;98675.41;;;32.59;32.14
1616;BME280;801;47.982;7.810;2022-08-02T14:38:26;98672.47;;;32.87;33.17
1616;BME280;801;47.982;7.810;2022-08-02T14:40:53;98677.50;;;32.40;31.65
1616;BME280;801;47.982;7.810;2022-08-02T14:43:19;98660.63;;;32.76;31.07
1616;BME280;801;47.982;7.810;2022-08-02T14:46:01;98674.16;;;33.26;29.90
1616;BME280;801;47.982;7.810;2022-08-02T14:48:28;98660.34;;;33.16;30.02
1616;BME280;801;47.982;7.810;2022-08-02T14:50:55;98664.78;;;33.06;29.77
1616;BME280;801;47.982;7.810;2022-08-02T14:53:21;98657.53;;;33.19;29.75
1616;BME280;801;47.982;7.810;2022-08-02T14:55:48;98665.47;;;33.17;29.36
1616;BME280;801;47.982;7.810;2022-08-02T14:58:15;98660.41;;;33.54;29.63
1616;BME280;801;47.982;7.810;2022-08-02T15:00:42;98661.88;;;33.65;28.30
1616;BME280;801;47.982;7.810;2022-08-02T15:03:10;98658.50;;;33.85;30.71
1616;BME280;801;47.982;7.810;2022-08-02T15:05:37;98662.72;;;33.97;28.71
1616;BME280;801;47.982;7.810;2022-08-02T15:08:13;98659.56;;;33.60;28.29
1616;BME280;801;47.982;7.810;2022-08-02T15:10:39;98656.41;;;33.51;29.54
1616;BME280;801;47.982;7.810;2022-08-02T15:13:06;98655.38;;;33.79;29.21
1616;BME280;801;47.982;7.810;2022-08-02T15:15:32;98658.66;;;33.25;28.91
1616;BME280;801;47.982;7.810;2022-08-02T15:17:59;98651.69;;;33.48;28.99
1616;BME280;801;47.982;7.810;2022-08-02T15:20:27;98656.78;;;33.53;28.88
1616;BME280;801;47.982;7.810;2022-08-02T15:22:54;98658.50;;;34.19;28.60
1616;BME280;801;47.982;7.810;2022-08-02T15:25:21;98652.41;;;34.28;28.85
1616;BME280;801;47.982;7.810;2022-08-02T15:27:47;98661.13;;;34.88;28.27
1616;BME280;801;47.982;7.810;2022-08-02T15:30:14;98644.31;;;34.91;28.26
1616;BME280;801;47.982;7.810;2022-08-02T15:32:41;98657.00;;;34.72;27.80
1616;BME280;801;47.982;7.810;2022-08-02T15:35:14;98647.75;;;35.26;27.86
1616;BME280;801;47.982;7.810;2022-08-02T15:37:42;98632.97;;;35.02;28.20
1616;BME280;801;47.982;7.810;2022-08-02T15:40:09;98645.66;;;34.83;27.63
1616;BME280;801;47.982;7.810;2022-08-02T15:42:36;98641.72;;;35.04;28.17
1616;BME280;801;47.982;7.810;2022-08-02T15:45:03;98638.28;;;34.97;28.46
1616;BME280;801;47.982;7.810;2022-08-02T15:47:29;98632.25;;;34.98;27.72
1616;BME280;801;47.982;7.810;2022-08-02T15:49:56;98631.25;;;34.85;27.98
1616;BME280;801;47.982;7.810;2022-08-02T15:52:23;98630.00;;;34.89;28.12
1616;BME280;801;47.982;7.810;2022-08-02T15:54:51;98630.16;;;34.51;28.29
1616;BME280;801;47.982;7.810;2022-08-02T15:57:17;98623.94;;;34.09;28.96
1616;BME280;801;47.982;7.810;2022-08-02T15:59:44;98633.94;;;34.38;28.42
1616;BME280;801;47.982;7.810;2022-08-02T16:02:11;98634.03;;;33.65;29.34
1616;BME280;801;47.982;7.810;2022-08-02T16:04:38;98624.59;;;33.52;29.80